sensor_id;sensor_type;location;lat;lon;timestamp;P1;durP1;ratioP1;P2;durP2;ratioP2
60205;SDS011;46072;51.554;6.846;2022-12-29T00:00:05;10.13;;;3.97;;
60205;SDS011;46072;51.554;6.846;2022-12-29T00:02:35;8.32;;;3.38;;
60205;SDS011;46072;51.554;6.846;2022-12-29T00:05:01;9.13;;;3.47;;
60205;SDS011;46072;51.554;6.846;2022-12-29T00:07:28;8.98;;;3.42;;
60205;SDS011;46072;51.554;6.846;2022-12-29T00:09:54;8.70;;;3.30;;
60205;SDS011;46072;51.554;6.846;2022-12-29T00:12:21;10.52;;;2.97;;
60205;SDS011;46072;51.554;6.846;2022-12-29T00:14:48;10.13;;;3.70;;
60205;SDS011;46072;51.554;6.846;2022-12-29T00:17:50;9.50;;;3.92;;
60205;SDS011;46072;51.554;6.846;2022-12-29T00:20:16;8.73;;;3.35;;
60205;SDS011;46072;51.554;6.846;2022-12-29T00:23:01;9.70;;;3.00;;
60205;SDS011;46072;51.554;6.846;2022-12-29T00:25:46;8.50;;;3.65;;
60205;SDS011;46072;51.554;6.846;2022-12-29T00:28:32;10.52;;;3.83;;
60205;SDS011;46072;51.554;6.846;2022-12-29T00:31:17;10.55;;;4.78;;
60205;SDS011;46072;51.554;6.846;2022-12-29T00:34:02;6.82;;;3.28;;
60205;SDS011;46072;51.554;6.846;2022-12-29T00:36:47;8.38;;;2.80;;
60205;SDS011;46072;51.554;6.846;2022-12-29T00:39:14;5.85;;;3.00;;
60205;SDS011;46072;51.554;6.846;2022-12-29T00:42:04;7.97;;;2.65;;
60205;SDS011;46072;51.554;6.846;2022-12-29T00:45:06;5.00;;;2.65;;
60205;SDS011;46072;51.554;6.846;2022-12-29T00:47:33;5.28;;;2.60;;
60205;SDS011;46072;51.554;6.846;2022-12-29T00:49:59;6.95;;;2.75;;
60205;SDS011;46072;51.554;6.846;2022-12-29T00:52:25;7.93;;;3.22;;
60205;SDS011;46072;51.554;6.846;2022-12-29T00:54:52;8.10;;;2.88;;
60205;SDS011;46072;51.554;6.846;2022-12-29T00:57:18;7.15;;;2.67;;
60205;SDS011;46072;51.554;6.846;2022-12-29T00:59:45;7.65;;;2.70;;
60205;SDS011;46072;51.554;6.846;2022-12-29T01:02:11;6.40;;;2.72;;
60205;SDS011;46072;51.554;6.846;2022-12-29T01:04:38;7.80;;;3.47;;
60205;SDS011;46072;51.554;6.846;2022-12-29T01:07:05;6.93;;;3.22;;
60205;SDS011;46072;51.554;6.846;2022-12-29T01:09:32;7.43;;;3.10;;
60205;SDS011;46072;51.554;6.846;2022-12-29T01:12:17;6.20;;;2.63;;
60205;SDS011;46072;51.554;6.846;2022-12-29T01:15:04;6.38;;;2.92;;
60205;SDS011;46072;51.554;6.846;2022-12-29T01:17:32;5.97;;;3.00;;
60205;SDS011;46072;51.554;6.846;2022-12-29T01:19:59;7.97;;;3.55;;
60205;SDS011;46072;51.554;6.846;2022-12-29T01:22:26;6.25;;;2.60;;
60205;SDS011;46072;51.554;6.846;2022-12-29T01:24:52;7.32;;;2.90;;
60205;SDS011;46072;51.554;6.846;2022-12-29T01:27:19;5.97;;;2.88;;
60205;SDS011;46072;51.554;6.846;2022-12-29T01:29:45;6.30;;;2.42;;
60205;SDS011;46072;51.554;6.846;2022-12-29T01:32:11;9.18;;;2.20;;
60205;SDS011;46072;51.554;6.846;2022-12-29T01:34:38;5.68;;;2.33;;
60205;SDS011;46072;51.554;6.846;2022-12-29T01:37:04;3.60;;;2.22;;
60205;SDS011;46072;51.554;6.846;2022-12-29T01:39:31;4.13;;;1.92;;
60205;SDS011;46072;51.554;6.846;2022-12-29T01:41:57;2.58;;;1.60;;
60205;SDS011;46072;51.554;6.846;2022-12-29T01:50:23;4.97;;;1.63;;
60205;SDS011;46072;51.554;6.846;2022-12-29T01:52:51;3.45;;;1.50;;
60205;SDS011;46072;51.554;6.846;2022-12-29T01:55:22;2.83;;;1.40;;
60205;SDS011;46072;51.554;6.846;2022-12-29T01:57:49;3.17;;;1.40;;
60205;SDS011;46072;51.554;6.846;2022-12-29T02:00:17;2.22;;;1.30;;
60205;SDS011;46072;51.554;6.846;2022-12-29T02:02:45;2.08;;;1.50;;
60205;SDS011;46072;51.554;6.846;2022-12-29T02:05:15;1.98;;;1.40;;
60205;SDS011;46072;51.554;6.846;2022-12-29T02:07:54;3.42;;;1.80;;
60205;SDS011;46072;51.554;6.846;2022-12-29T02:10:21;3.58;;;1.50;;
60205;SDS011;46072;51.554;6.846;2022-12-29T02:12:49;2.65;;;1.50;;
60205;SDS011;46072;51.554;6.846;2022-12-29T02:15:15;1.85;;;1.42;;
60205;SDS011;46072;51.554;6.846;2022-12-29T02:20:37;3.83;;;1.60;;
60205;SDS011;46072;51.554;6.846;2022-12-29T02:26:23;3.13;;;1.30;;
60205;SDS011;46072;51.554;6.846;2022-12-29T02:32:15;5.10;;;1.42;;
60205;SDS011;46072;51.554;6.846;2022-12-29T02:35:13;2.20;;;1.42;;
60205;SDS011;46072;51.554;6.846;2022-12-29T02:41:05;2.67;;;1.42;;
60205;SDS011;46072;51.554;6.846;2022-12-29T02:43:39;2.13;;;1.30;;
60205;SDS011;46072;51.554;6.846;2022-12-29T02:51:54;3.30;;;1.33;;
60205;SDS011;46072;51.554;6.846;2022-12-29T02:54:24;3.58;;;1.30;;
60205;SDS011;46072;51.554;6.846;2022-12-29T02:59:43;2.60;;;1.27;;
60205;SDS011;46072;51.554;6.846;2022-12-29T03:02:14;2.80;;;1.10;;
60205;SDS011;46072;51.554;6.846;2022-12-29T03:10:28;2.55;;;1.83;;
60205;SDS011;46072;51.554;6.846;2022-12-29T03:12:57;3.92;;;1.52;;
60205;SDS011;46072;51.554;6.846;2022-12-29T03:15:54;4.82;;;1.65;;
60205;SDS011;46072;51.554;6.846;2022-12-29T03:20:55;2.72;;;1.75;;
60205;SDS011;46072;51.554;6.846;2022-12-29T03:23:28;6.53;;;1.67;;
60205;SDS011;46072;51.554;6.846;2022-12-29T03:25:56;7.90;;;2.10;;
60205;SDS011;46072;51.554;6.846;2022-12-29T03:28:25;4.85;;;2.17;;
60205;SDS011;46072;51.554;6.846;2022-12-29T03:30:54;9.77;;;1.70;;
60205;SDS011;46072;51.554;6.846;2022-12-29T03:33:22;7.57;;;2.67;;
60205;SDS011;46072;51.554;6.846;2022-12-29T03:35:50;5.97;;;2.05;;
60205;SDS011;46072;51.554;6.846;2022-12-29T03:38:24;7.85;;;2.60;;
60205;SDS011;46072;51.554;6.846;2022-12-29T03:41:08;7.85;;;2.15;;
60205;SDS011;46072;51.554;6.846;2022-12-29T03:43:37;8.93;;;2.38;;
60205;SDS011;46072;51.554;6.846;2022-12-29T03:46:03;2.28;;;1.25;;
60205;SDS011;46072;51.554;6.846;2022-12-29T03:48:30;8.05;;;1.90;;
60205;SDS011;46072;51.554;6.846;2022-12-29T03:50:56;5.20;;;1.75;;
60205;SDS011;46072;51.554;6.846;2022-12-29T03:53:23;5.40;;;2.17;;
60205;SDS011;46072;51.554;6.846;2022-12-29T03:55:49;4.40;;;1.55;;
60205;SDS011;46072;51.554;6.846;2022-12-29T03:58:16;3.42;;;1.50;;
60205;SDS011;46072;51.554;6.846;2022-12-29T04:00:43;1.92;;;1.50;;
60205;SDS011;46072;51.554;6.846;2022-12-29T04:03:10;2.13;;;1.33;;
60205;SDS011;46072;51.554;6.846;2022-12-29T04:05:36;1.73;;;1.33;;
60205;SDS011;46072;51.554;6.846;2022-12-29T04:08:03;2.13;;;1.15;;
60205;SDS011;46072;51.554;6.846;2022-12-29T04:10:29;2.28;;;1.45;;
60205;SDS011;46072;51.554;6.846;2022-12-29T04:12:56;6.22;;;1.48;;
60205;SDS011;46072;51.554;6.846;2022-12-29T04:15:22;1.42;;;1.30;;
60205;SDS011;46072;51.554;6.846;2022-12-29T04:17:50;2.10;;;1.50;;
60205;SDS011;46072;51.554;6.846;2022-12-29T04:20:16;3.47;;;1.40;;
60205;SDS011;46072;51.554;6.846;2022-12-29T04:23:03;3.55;;;1.58;;
60205;SDS011;46072;51.554;6.846;2022-12-29T04:25:30;3.60;;;1.60;;
60205;SDS011;46072;51.554;6.846;2022-12-29T04:27:57;3.22;;;1.73;;
60205;SDS011;46072;51.554;6.846;2022-12-29T04:30:24;3.00;;;1.60;;
60205;SDS011;46072;51.554;6.846;2022-12-29T04:32:50;1.92;;;1.23;;
60205;SDS011;46072;51.554;6.846;2022-12-29T04:35:16;3.50;;;1.70;;
60205;SDS011;46072;51.554;6.846;2022-12-29T04:37:43;2.08;;;1.25;;
60205;SDS011;46072;51.554;6.846;2022-12-29T04:40:10;3.03;;;1.70;;
60205;SDS011;46072;51.554;6.846;2022-12-29T04:42:37;5.57;;;1.65;;
60205;SDS011;46072;51.554;6.846;2022-12-29T04:45:03;4.28;;;1.73;;
60205;SDS011;46072;51.554;6.846;2022-12-29T04:47:30;3.55;;;1.52;;
60205;SDS011;46072;51.554;6.846;2022-12-29T04:49:56;2.08;;;1.40;;
60205;SDS011;46072;51.554;6.846;2022-12-29T04:52:23;6.72;;;1.67;;
60205;SDS011;46072;51.554;6.846;2022-12-29T04:54:49;3.55;;;1.30;;
60205;SDS011;46072;51.554;6.846;2022-12-29T04:57:16;1.25;;;0.55;;
60205;SDS011;46072;51.554;6.846;2022-12-29T04:59:42;2.85;;;0.90;;
60205;SDS011;46072;51.554;6.846;2022-12-29T05:02:09;2.17;;;1.05;;
60205;SDS011;46072;51.554;6.846;2022-12-29T05:04:35;1.50;;;0.80;;
60205;SDS011;46072;51.554;6.846;2022-12-29T05:07:02;3.50;;;1.23;;
60205;SDS011;46072;51.554;6.846;2022-12-29T05:09:28;5.15;;;1.30;;
60205;SDS011;46072;51.554;6.846;2022-12-29T05:11:56;1.50;;;0.90;;
60205;SDS011;46072;51.554;6.846;2022-12-29T05:14:22;7.53;;;1.30;;
60205;SDS011;46072;51.554;6.846;2022-12-29T05:16:48;4.55;;;1.55;;
60205;SDS011;46072;51.554;6.846;2022-12-29T05:19:15;2.38;;;0.80;;
60205;SDS011;46072;51.554;6.846;2022-12-29T05:21:43;1.08;;;0.88;;
60205;SDS011;46072;51.554;6.846;2022-12-29T05:24:10;2.78;;;0.82;;
60205;SDS011;46072;51.554;6.846;2022-12-29T05:26:36;1.70;;;0.77;;
60205;SDS011;46072;51.554;6.846;2022-12-29T05:29:03;1.55;;;1.13;;
60205;SDS011;46072;51.554;6.846;2022-12-29T05:31:29;1.45;;;0.90;;
60205;SDS011;46072;51.554;6.846;2022-12-29T05:33:56;7.45;;;1.10;;
60205;SDS011;46072;51.554;6.846;2022-12-29T05:36:22;2.92;;;1.45;;
60205;SDS011;46072;51.554;6.846;2022-12-29T05:38:49;5.20;;;1.80;;
60205;SDS011;46072;51.554;6.846;2022-12-29T05:41:15;5.78;;;2.35;;
60205;SDS011;46072;51.554;6.846;2022-12-29T05:43:42;6.65;;;2.97;;
60205;SDS011;46072;51.554;6.846;2022-12-29T05:46:08;9.50;;;2.85;;
60205;SDS011;46072;51.554;6.846;2022-12-29T05:48:35;8.23;;;3.15;;
60205;SDS011;46072;51.554;6.846;2022-12-29T05:51:03;7.65;;;3.53;;
60205;SDS011;46072;51.554;6.846;2022-12-29T05:53:30;4.05;;;1.90;;
60205;SDS011;46072;51.554;6.846;2022-12-29T05:55:56;4.70;;;2.00;;
60205;SDS011;46072;51.554;6.846;2022-12-29T05:58:23;5.97;;;2.08;;
60205;SDS011;46072;51.554;6.846;2022-12-29T06:00:49;5.70;;;1.83;;
60205;SDS011;46072;51.554;6.846;2022-12-29T06:03:16;6.35;;;2.00;;
60205;SDS011;46072;51.554;6.846;2022-12-29T06:05:46;6.30;;;2.00;;
60205;SDS011;46072;51.554;6.846;2022-12-29T06:08:13;4.07;;;1.40;;
60205;SDS011;46072;51.554;6.846;2022-12-29T06:10:39;4.35;;;1.38;;
60205;SDS011;46072;51.554;6.846;2022-12-29T06:13:06;7.65;;;1.67;;
60205;SDS011;46072;51.554;6.846;2022-12-29T06:15:33;3.85;;;1.80;;
60205;SDS011;46072;51.554;6.846;2022-12-29T06:17:59;5.85;;;1.60;;
60205;SDS011;46072;51.554;6.846;2022-12-29T06:20:26;1.85;;;1.00;;
60205;SDS011;46072;51.554;6.846;2022-12-29T06:22:53;8.05;;;1.50;;
60205;SDS011;46072;51.554;6.846;2022-12-29T06:25:19;2.33;;;1.08;;
60205;SDS011;46072;51.554;6.846;2022-12-29T06:27:46;9.57;;;1.73;;
60205;SDS011;46072;51.554;6.846;2022-12-29T06:30:12;6.35;;;1.80;;
60205;SDS011;46072;51.554;6.846;2022-12-29T06:32:39;8.27;;;2.20;;
60205;SDS011;46072;51.554;6.846;2022-12-29T06:35:05;6.78;;;2.10;;
60205;SDS011;46072;51.554;6.846;2022-12-29T06:37:32;6.78;;;2.03;;
60205;SDS011;46072;51.554;6.846;2022-12-29T06:39:59;3.15;;;1.70;;
60205;SDS011;46072;51.554;6.846;2022-12-29T06:42:25;9.40;;;2.10;;
60205;SDS011;46072;51.554;6.846;2022-12-29T06:44:51;10.30;;;2.30;;
60205;SDS011;46072;51.554;6.846;2022-12-29T06:47:18;5.65;;;1.95;;
60205;SDS011;46072;51.554;6.846;2022-12-29T06:49:44;5.22;;;1.80;;
60205;SDS011;46072;51.554;6.846;2022-12-29T06:52:11;6.25;;;2.42;;
60205;SDS011;46072;51.554;6.846;2022-12-29T06:54:39;4.28;;;1.83;;
60205;SDS011;46072;51.554;6.846;2022-12-29T06:57:05;5.30;;;2.25;;
60205;SDS011;46072;51.554;6.846;2022-12-29T06:59:32;13.95;;;2.08;;
60205;SDS011;46072;51.554;6.846;2022-12-29T07:01:59;4.07;;;1.42;;
60205;SDS011;46072;51.554;6.846;2022-12-29T07:04:26;3.97;;;1.38;;
60205;SDS011;46072;51.554;6.846;2022-12-29T07:06:53;5.25;;;1.70;;
60205;SDS011;46072;51.554;6.846;2022-12-29T07:09:20;3.30;;;1.40;;
60205;SDS011;46072;51.554;6.846;2022-12-29T07:11:46;6.57;;;2.03;;
60205;SDS011;46072;51.554;6.846;2022-12-29T07:14:13;8.10;;;1.73;;
60205;SDS011;46072;51.554;6.846;2022-12-29T07:16:39;7.75;;;1.80;;
60205;SDS011;46072;51.554;6.846;2022-12-29T07:19:06;6.95;;;2.03;;
60205;SDS011;46072;51.554;6.846;2022-12-29T07:21:32;8.27;;;2.03;;
60205;SDS011;46072;51.554;6.846;2022-12-29T07:23:58;10.23;;;1.85;;
60205;SDS011;46072;51.554;6.846;2022-12-29T07:26:25;6.43;;;2.08;;
60205;SDS011;46072;51.554;6.846;2022-12-29T07:28:59;6.95;;;2.55;;
60205;SDS011;46072;51.554;6.846;2022-12-29T07:31:26;9.27;;;2.35;;
60205;SDS011;46072;51.554;6.846;2022-12-29T07:33:53;11.15;;;2.65;;
60205;SDS011;46072;51.554;6.846;2022-12-29T07:36:20;7.13;;;2.22;;
60205;SDS011;46072;51.554;6.846;2022-12-29T07:38:46;9.48;;;2.70;;
60205;SDS011;46072;51.554;6.846;2022-12-29T07:41:13;12.23;;;2.53;;
60205;SDS011;46072;51.554;6.846;2022-12-29T07:43:39;6.15;;;2.22;;
60205;SDS011;46072;51.554;6.846;2022-12-29T07:46:05;12.43;;;2.75;;
60205;SDS011;46072;51.554;6.846;2022-12-29T07:48:32;8.07;;;1.90;;
60205;SDS011;46072;51.554;6.846;2022-12-29T07:51:01;7.68;;;1.83;;
60205;SDS011;46072;51.554;6.846;2022-12-29T07:53:28;7.20;;;2.15;;
60205;SDS011;46072;51.554;6.846;2022-12-29T07:55:55;7.95;;;1.95;;
60205;SDS011;46072;51.554;6.846;2022-12-29T07:58:21;10.55;;;2.00;;
60205;SDS011;46072;51.554;6.846;2022-12-29T08:00:52;10.52;;;2.58;;
60205;SDS011;46072;51.554;6.846;2022-12-29T08:03:19;9.57;;;2.75;;
60205;SDS011;46072;51.554;6.846;2022-12-29T08:05:46;9.48;;;2.35;;
60205;SDS011;46072;51.554;6.846;2022-12-29T08:08:12;6.22;;;2.00;;
60205;SDS011;46072;51.554;6.846;2022-12-29T08:10:39;5.25;;;1.90;;
60205;SDS011;46072;51.554;6.846;2022-12-29T08:13:05;10.13;;;2.92;;
60205;SDS011;46072;51.554;6.846;2022-12-29T08:15:32;14.93;;;3.38;;
60205;SDS011;46072;51.554;6.846;2022-12-29T08:17:59;12.10;;;2.67;;
60205;SDS011;46072;51.554;6.846;2022-12-29T08:20:25;17.00;;;5.45;;
60205;SDS011;46072;51.554;6.846;2022-12-29T08:22:51;13.05;;;3.13;;
60205;SDS011;46072;51.554;6.846;2022-12-29T08:25:18;5.95;;;1.92;;
60205;SDS011;46072;51.554;6.846;2022-12-29T08:27:45;10.90;;;3.08;;
60205;SDS011;46072;51.554;6.846;2022-12-29T08:30:12;11.68;;;2.58;;
60205;SDS011;46072;51.554;6.846;2022-12-29T08:32:39;17.73;;;2.63;;
60205;SDS011;46072;51.554;6.846;2022-12-29T08:35:05;7.30;;;1.77;;
60205;SDS011;46072;51.554;6.846;2022-12-29T08:37:32;9.98;;;1.90;;
60205;SDS011;46072;51.554;6.846;2022-12-29T08:39:59;10.93;;;2.28;;
60205;SDS011;46072;51.554;6.846;2022-12-29T08:42:30;8.40;;;2.87;;
60205;SDS011;46072;51.554;6.846;2022-12-29T08:44:57;10.85;;;2.90;;
60205;SDS011;46072;51.554;6.846;2022-12-29T08:47:27;10.68;;;2.47;;
60205;SDS011;46072;51.554;6.846;2022-12-29T08:49:53;11.80;;;2.83;;
60205;SDS011;46072;51.554;6.846;2022-12-29T08:52:20;15.73;;;2.70;;
60205;SDS011;46072;51.554;6.846;2022-12-29T08:54:46;9.70;;;2.40;;
60205;SDS011;46072;51.554;6.846;2022-12-29T08:57:13;8.55;;;3.25;;
60205;SDS011;46072;51.554;6.846;2022-12-29T08:59:39;14.88;;;2.38;;
60205;SDS011;46072;51.554;6.846;2022-12-29T09:02:08;5.22;;;1.40;;
60205;SDS011;46072;51.554;6.846;2022-12-29T09:04:36;9.65;;;2.92;;
60205;SDS011;46072;51.554;6.846;2022-12-29T09:07:03;5.32;;;1.40;;
60205;SDS011;46072;51.554;6.846;2022-12-29T09:09:29;7.65;;;1.80;;
60205;SDS011;46072;51.554;6.846;2022-12-29T09:11:56;7.90;;;1.50;;
60205;SDS011;46072;51.554;6.846;2022-12-29T09:14:22;13.20;;;1.50;;
60205;SDS011;46072;51.554;6.846;2022-12-29T09:16:50;6.10;;;1.20;;
60205;SDS011;46072;51.554;6.846;2022-12-29T09:19:36;5.22;;;1.48;;
60205;SDS011;46072;51.554;6.846;2022-12-29T09:22:03;7.28;;;2.05;;
60205;SDS011;46072;51.554;6.846;2022-12-29T09:24:29;12.80;;;3.20;;
60205;SDS011;46072;51.554;6.846;2022-12-29T09:26:57;13.52;;;2.97;;
60205;SDS011;46072;51.554;6.846;2022-12-29T09:29:23;10.15;;;2.20;;
60205;SDS011;46072;51.554;6.846;2022-12-29T09:31:50;11.50;;;3.15;;
60205;SDS011;46072;51.554;6.846;2022-12-29T09:34:16;8.88;;;2.65;;
60205;SDS011;46072;51.554;6.846;2022-12-29T09:36:43;9.82;;;2.17;;
60205;SDS011;46072;51.554;6.846;2022-12-29T09:39:09;5.25;;;1.65;;
60205;SDS011;46072;51.554;6.846;2022-12-29T09:41:39;3.58;;;1.40;;
60205;SDS011;46072;51.554;6.846;2022-12-29T09:44:13;10.35;;;2.08;;
60205;SDS011;46072;51.554;6.846;2022-12-29T09:46:48;7.88;;;1.38;;
60205;SDS011;46072;51.554;6.846;2022-12-29T09:49:24;9.52;;;1.80;;
60205;SDS011;46072;51.554;6.846;2022-12-29T09:51:56;9.55;;;1.80;;
60205;SDS011;46072;51.554;6.846;2022-12-29T09:54:39;16.00;;;2.17;;
60205;SDS011;46072;51.554;6.846;2022-12-29T10:00:13;6.13;;;1.48;;
60205;SDS011;46072;51.554;6.846;2022-12-29T10:02:46;12.73;;;2.65;;
60205;SDS011;46072;51.554;6.846;2022-12-29T10:10:54;5.30;;;1.83;;
60205;SDS011;46072;51.554;6.846;2022-12-29T10:16:02;10.52;;;2.53;;
60205;SDS011;46072;51.554;6.846;2022-12-29T10:23:50;12.05;;;1.98;;
60205;SDS011;46072;51.554;6.846;2022-12-29T10:26:19;3.95;;;1.50;;
60205;SDS011;46072;51.554;6.846;2022-12-29T10:29:03;5.30;;;1.25;;
60205;SDS011;46072;51.554;6.846;2022-12-29T10:33:58;8.43;;;2.38;;
60205;SDS011;46072;51.554;6.846;2022-12-29T10:44:42;5.10;;;1.50;;
60205;SDS011;46072;51.554;6.846;2022-12-29T10:47:15;7.60;;;1.85;;
60205;SDS011;46072;51.554;6.846;2022-12-29T10:49:44;9.38;;;2.67;;
60205;SDS011;46072;51.554;6.846;2022-12-29T10:52:11;6.60;;;1.60;;
60205;SDS011;46072;51.554;6.846;2022-12-29T10:54:43;12.38;;;2.30;;
60205;SDS011;46072;51.554;6.846;2022-12-29T10:57:24;14.23;;;2.80;;
60205;SDS011;46072;51.554;6.846;2022-12-29T10:59:53;10.20;;;2.50;;
60205;SDS011;46072;51.554;6.846;2022-12-29T11:02:24;8.60;;;2.30;;
60205;SDS011;46072;51.554;6.846;2022-12-29T11:05:46;6.30;;;1.77;;
60205;SDS011;46072;51.554;6.846;2022-12-29T11:07:59;14.85;;;3.35;;
60205;SDS011;46072;51.554;6.846;2022-12-29T11:10:35;11.10;;;2.10;;
60205;SDS011;46072;51.554;6.846;2022-12-29T11:16:04;10.73;;;1.92;;
60205;SDS011;46072;51.554;6.846;2022-12-29T11:18:35;8.57;;;2.50;;
60205;SDS011;46072;51.554;6.846;2022-12-29T11:21:04;13.70;;;2.83;;
60205;SDS011;46072;51.554;6.846;2022-12-29T11:23:37;6.90;;;1.92;;
60205;SDS011;46072;51.554;6.846;2022-12-29T11:28:44;13.57;;;2.65;;
60205;SDS011;46072;51.554;6.846;2022-12-29T11:31:39;8.10;;;2.25;;
60205;SDS011;46072;51.554;6.846;2022-12-29T11:34:07;14.80;;;2.70;;
60205;SDS011;46072;51.554;6.846;2022-12-29T11:36:34;8.55;;;2.22;;
60205;SDS011;46072;51.554;6.846;2022-12-29T11:39:01;11.05;;;2.30;;
60205;SDS011;46072;51.554;6.846;2022-12-29T11:41:32;7.45;;;1.90;;
60205;SDS011;46072;51.554;6.846;2022-12-29T11:43:59;11.90;;;2.38;;
60205;SDS011;46072;51.554;6.846;2022-12-29T11:46:30;12.68;;;3.38;;
60205;SDS011;46072;51.554;6.846;2022-12-29T11:48:59;9.93;;;2.30;;
60205;SDS011;46072;51.554;6.846;2022-12-29T11:51:27;10.13;;;2.83;;
60205;SDS011;46072;51.554;6.846;2022-12-29T11:53:59;15.35;;;2.65;;
60205;SDS011;46072;51.554;6.846;2022-12-29T12:02:00;10.15;;;2.05;;
60205;SDS011;46072;51.554;6.846;2022-12-29T12:04:37;8.00;;;2.28;;
60205;SDS011;46072;51.554;6.846;2022-12-29T12:07:11;12.27;;;2.30;;
60205;SDS011;46072;51.554;6.846;2022-12-29T12:09:57;8.82;;;2.10;;
60205;SDS011;46072;51.554;6.846;2022-12-29T12:12:34;11.70;;;2.40;;
60205;SDS011;46072;51.554;6.846;2022-12-29T12:15:03;11.65;;;2.10;;
60205;SDS011;46072;51.554;6.846;2022-12-29T12:20:10;4.30;;;1.95;;
60205;SDS011;46072;51.554;6.846;2022-12-29T12:26:02;8.27;;;1.83;;
60205;SDS011;46072;51.554;6.846;2022-12-29T12:28:45;10.38;;;2.40;;
60205;SDS011;46072;51.554;6.846;2022-12-29T12:31:27;12.05;;;3.50;;
60205;SDS011;46072;51.554;6.846;2022-12-29T12:34:38;10.48;;;2.50;;
60205;SDS011;46072;51.554;6.846;2022-12-29T12:37:29;6.68;;;1.80;;
60205;SDS011;46072;51.554;6.846;2022-12-29T12:48:55;6.03;;;2.17;;
60205;SDS011;46072;51.554;6.846;2022-12-29T12:54:10;7.97;;;2.60;;
60205;SDS011;46072;51.554;6.846;2022-12-29T12:59:37;11.60;;;2.17;;
60205;SDS011;46072;51.554;6.846;2022-12-29T13:05:49;5.85;;;1.63;;
60205;SDS011;46072;51.554;6.846;2022-12-29T13:18:48;8.20;;;2.30;;
60205;SDS011;46072;51.554;6.846;2022-12-29T13:27:23;10.85;;;2.50;;
60205;SDS011;46072;51.554;6.846;2022-12-29T13:30:10;14.55;;;2.38;;
60205;SDS011;46072;51.554;6.846;2022-12-29T13:32:57;11.27;;;2.70;;
60205;SDS011;46072;51.554;6.846;2022-12-29T13:38:23;12.98;;;2.85;;
60205;SDS011;46072;51.554;6.846;2022-12-29T13:40:55;7.85;;;2.63;;
60205;SDS011;46072;51.554;6.846;2022-12-29T13:43:23;14.90;;;2.83;;
60205;SDS011;46072;51.554;6.846;2022-12-29T13:45:55;9.52;;;2.83;;
60205;SDS011;46072;51.554;6.846;2022-12-29T13:48:49;14.27;;;3.30;;
60205;SDS011;46072;51.554;6.846;2022-12-29T13:51:16;12.23;;;3.13;;
60205;SDS011;46072;51.554;6.846;2022-12-29T13:56:40;13.40;;;3.35;;
60205;SDS011;46072;51.554;6.846;2022-12-29T14:04:21;12.35;;;2.67;;
60205;SDS011;46072;51.554;6.846;2022-12-29T14:06:59;8.68;;;2.20;;
60205;SDS011;46072;51.554;6.846;2022-12-29T14:15:02;9.02;;;2.58;;
60205;SDS011;46072;51.554;6.846;2022-12-29T14:17:30;9.18;;;2.22;;
60205;SDS011;46072;51.554;6.846;2022-12-29T14:19:56;13.00;;;2.88;;
60205;SDS011;46072;51.554;6.846;2022-12-29T14:22:23;11.25;;;2.65;;
60205;SDS011;46072;51.554;6.846;2022-12-29T14:24:58;9.00;;;2.70;;
60205;SDS011;46072;51.554;6.846;2022-12-29T14:27:51;12.05;;;3.00;;
60205;SDS011;46072;51.554;6.846;2022-12-29T14:33:15;13.20;;;3.08;;
60205;SDS011;46072;51.554;6.846;2022-12-29T14:35:43;15.70;;;2.97;;
60205;SDS011;46072;51.554;6.846;2022-12-29T14:38:16;12.50;;;3.55;;
60205;SDS011;46072;51.554;6.846;2022-12-29T14:40:45;18.88;;;3.88;;
60205;SDS011;46072;51.554;6.846;2022-12-29T14:43:13;16.27;;;3.50;;
60205;SDS011;46072;51.554;6.846;2022-12-29T14:45:47;11.73;;;3.67;;
60205;SDS011;46072;51.554;6.846;2022-12-29T14:49:01;13.10;;;3.30;;
60205;SDS011;46072;51.554;6.846;2022-12-29T14:51:18;11.75;;;3.40;;
60205;SDS011;46072;51.554;6.846;2022-12-29T14:53:57;19.35;;;4.32;;
60205;SDS011;46072;51.554;6.846;2022-12-29T14:56:27;11.68;;;2.83;;
60205;SDS011;46072;51.554;6.846;2022-12-29T14:59:01;12.93;;;3.25;;
60205;SDS011;46072;51.554;6.846;2022-12-29T15:04:00;14.35;;;2.90;;
60205;SDS011;46072;51.554;6.846;2022-12-29T15:06:31;8.55;;;2.50;;
60205;SDS011;46072;51.554;6.846;2022-12-29T15:09:23;9.57;;;2.60;;
60205;SDS011;46072;51.554;6.846;2022-12-29T15:11:55;7.90;;;2.40;;
60205;SDS011;46072;51.554;6.846;2022-12-29T15:14:27;14.07;;;2.33;;
60205;SDS011;46072;51.554;6.846;2022-12-29T15:17:09;14.55;;;2.70;;
60205;SDS011;46072;51.554;6.846;2022-12-29T15:19:55;12.40;;;3.00;;
60205;SDS011;46072;51.554;6.846;2022-12-29T15:22:23;14.02;;;2.80;;
60205;SDS011;46072;51.554;6.846;2022-12-29T15:24:50;8.85;;;2.40;;
60205;SDS011;46072;51.554;6.846;2022-12-29T15:27:22;11.43;;;2.47;;
60205;SDS011;46072;51.554;6.846;2022-12-29T15:30:03;16.08;;;3.85;;
60205;SDS011;46072;51.554;6.846;2022-12-29T15:32:40;10.40;;;2.15;;
60205;SDS011;46072;51.554;6.846;2022-12-29T15:35:22;8.55;;;2.10;;
60205;SDS011;46072;51.554;6.846;2022-12-29T15:38:00;7.75;;;2.10;;
60205;SDS011;46072;51.554;6.846;2022-12-29T15:40:39;5.05;;;1.90;;
60205;SDS011;46072;51.554;6.846;2022-12-29T15:45:35;8.18;;;2.13;;
60205;SDS011;46072;51.554;6.846;2022-12-29T15:48:03;10.13;;;2.88;;
60205;SDS011;46072;51.554;6.846;2022-12-29T15:50:34;8.35;;;1.90;;
60205;SDS011;46072;51.554;6.846;2022-12-29T15:53:01;12.40;;;3.60;;
60205;SDS011;46072;51.554;6.846;2022-12-29T15:55:30;9.48;;;2.78;;
60205;SDS011;46072;51.554;6.846;2022-12-29T15:58:00;12.10;;;3.53;;
60205;SDS011;46072;51.554;6.846;2022-12-29T16:00:29;10.90;;;3.10;;
60205;SDS011;46072;51.554;6.846;2022-12-29T16:03:00;14.45;;;3.78;;
60205;SDS011;46072;51.554;6.846;2022-12-29T16:05:35;19.17;;;3.97;;
60205;SDS011;46072;51.554;6.846;2022-12-29T16:08:03;19.63;;;3.72;;
60205;SDS011;46072;51.554;6.846;2022-12-29T16:10:35;17.92;;;4.03;;
60205;SDS011;46072;51.554;6.846;2022-12-29T16:15:48;14.45;;;3.17;;
60205;SDS011;46072;51.554;6.846;2022-12-29T16:18:20;10.30;;;2.92;;
60205;SDS011;46072;51.554;6.846;2022-12-29T16:20:50;16.35;;;2.80;;
60205;SDS011;46072;51.554;6.846;2022-12-29T16:23:18;9.30;;;3.40;;
60205;SDS011;46072;51.554;6.846;2022-12-29T16:25:49;11.65;;;2.92;;
60205;SDS011;46072;51.554;6.846;2022-12-29T16:28:19;12.98;;;3.05;;
60205;SDS011;46072;51.554;6.846;2022-12-29T16:30:58;12.07;;;2.72;;
60205;SDS011;46072;51.554;6.846;2022-12-29T16:33:32;15.18;;;3.95;;
60205;SDS011;46072;51.554;6.846;2022-12-29T16:36:23;11.82;;;2.83;;
60205;SDS011;46072;51.554;6.846;2022-12-29T16:41:52;10.13;;;2.20;;
60205;SDS011;46072;51.554;6.846;2022-12-29T16:44:20;9.13;;;2.10;;
60205;SDS011;46072;51.554;6.846;2022-12-29T16:49:31;6.15;;;1.70;;
60205;SDS011;46072;51.554;6.846;2022-12-29T16:51:58;10.80;;;2.25;;
60205;SDS011;46072;51.554;6.846;2022-12-29T16:54:30;4.57;;;1.67;;
60205;SDS011;46072;51.554;6.846;2022-12-29T16:57:01;8.93;;;2.08;;
60205;SDS011;46072;51.554;6.846;2022-12-29T16:59:35;11.13;;;2.30;;
60205;SDS011;46072;51.554;6.846;2022-12-29T17:02:12;6.32;;;2.15;;
60205;SDS011;46072;51.554;6.846;2022-12-29T17:04:40;9.85;;;2.83;;
60205;SDS011;46072;51.554;6.846;2022-12-29T17:07:15;19.25;;;5.20;;
60205;SDS011;46072;51.554;6.846;2022-12-29T17:09:42;10.68;;;4.00;;
60205;SDS011;46072;51.554;6.846;2022-12-29T17:12:10;11.68;;;3.15;;
60205;SDS011;46072;51.554;6.846;2022-12-29T17:17:23;5.32;;;2.33;;
60205;SDS011;46072;51.554;6.846;2022-12-29T17:19:56;9.30;;;3.03;;
60205;SDS011;46072;51.554;6.846;2022-12-29T17:22:28;15.15;;;4.25;;
60205;SDS011;46072;51.554;6.846;2022-12-29T17:24:56;17.08;;;4.63;;
60205;SDS011;46072;51.554;6.846;2022-12-29T17:27:28;18.73;;;5.78;;
60205;SDS011;46072;51.554;6.846;2022-12-29T17:29:58;14.73;;;6.38;;
60205;SDS011;46072;51.554;6.846;2022-12-29T17:32:35;18.55;;;5.80;;